sensor_id;sensor_type;location;lat;lon;timestamp;temperature;humidity
44509;DHT22;30214;52.246;14.408;2023-04-24T00:01:41;10.60;99.90
44509;DHT22;30214;52.246;14.408;2023-04-24T00:04:09;10.60;99.90
44509;DHT22;30214;52.246;14.408;2023-04-24T00:06:36;10.60;99.90
44509;DHT22;30214;52.246;14.408;2023-04-24T00:09:04;10.60;99.90
44509;DHT22;30214;52.246;14.408;2023-04-24T00:11:32;10.70;99.90
44509;DHT22;30214;52.246;14.408;2023-04-24T00:13:59;10.70;99.90
44509;DHT22;30214;52.246;14.408;2023-04-24T00:16:26;10.60;99.90
44509;DHT22;30214;52.246;14.408;2023-04-24T00:18:54;10.70;99.90
44509;DHT22;30214;52.246;14.408;2023-04-24T00:21:21;10.70;99.90
44509;DHT22;30214;52.246;14.408;2023-04-24T00:23:51;10.70;99.90
44509;DHT22;30214;52.246;14.408;2023-04-24T00:26:18;10.70;99.90
44509;DHT22;30214;52.246;14.408;2023-04-24T00:28:47;10.70;99.90
44509;DHT22;30214;52.246;14.408;2023-04-24T00:31:14;10.70;99.90
44509;DHT22;30214;52.246;14.408;2023-04-24T00:33:41;10.70;99.90
44509;DHT22;30214;52.246;14.408;2023-04-24T00:36:08;10.70;99.90
44509;DHT22;30214;52.246;14.408;2023-04-24T00:38:35;10.60;99.90
44509;DHT22;30214;52.246;14.408;2023-04-24T00:41:03;10.50;99.90
44509;DHT22;30214;52.246;14.408;2023-04-24T00:43:30;10.40;99.90
44509;DHT22;30214;52.246;14.408;2023-04-24T00:45:59;10.40;99.90
44509;DHT22;30214;52.246;14.408;2023-04-24T00:48:27;10.30;99.90
44509;DHT22;30214;52.246;14.408;2023-04-24T00:50:55;10.20;99.90
44509;DHT22;30214;52.246;14.408;2023-04-24T00:53:22;10.10;99.90
44509;DHT22;30214;52.246;14.408;2023-04-24T00:55:50;10.00;99.90
44509;DHT22;30214;52.246;14.408;2023-04-24T00:58:18;10.00;99.90
44509;DHT22;30214;52.246;14.408;2023-04-24T01:00:45;9.90;99.90
44509;DHT22;30214;52.246;14.408;2023-04-24T01:03:14;9.90;99.90
44509;DHT22;30214;52.246;14.408;2023-04-24T01:05:42;9.90;99.90
44509;DHT22;30214;52.246;14.408;2023-04-24T01:08:09;9.90;99.90
44509;DHT22;30214;52.246;14.408;2023-04-24T01:10:38;10.00;99.90
44509;DHT22;30214;52.246;14.408;2023-04-24T01:13:07;9.90;99.90
44509;DHT22;30214;52.246;14.408;2023-04-24T01:15:35;9.90;99.90
44509;DHT22;30214;52.246;14.408;2023-04-24T01:18:02;9.90;99.90
44509;DHT22;30214;52.246;14.408;2023-04-24T01:20:31;9.90;99.90
44509;DHT22;30214;52.246;14.408;2023-04-24T01:22:59;9.90;99.90
44509;DHT22;30214;52.246;14.408;2023-04-24T01:25:27;10.00;99.90
44509;DHT22;30214;52.246;14.408;2023-04-24T01:27:56;10.00;99.90
44509;DHT22;30214;52.246;14.408;2023-04-24T01:30:25;10.10;99.90
44509;DHT22;30214;52.246;14.408;2023-04-24T01:32:52;10.10;99.90
44509;DHT22;30214;52.246;14.408;2023-04-24T01:35:20;10.00;99.90
44509;DHT22;30214;52.246;14.408;2023-04-24T01:37:47;9.90;99.90
44509;DHT22;30214;52.246;14.408;2023-04-24T01:40:16;9.90;99.90
44509;DHT22;30214;52.246;14.408;2023-04-24T01:42:43;9.80;99.90
44509;DHT22;30214;52.246;14.408;2023-04-24T01:45:12;9.80;99.90
44509;DHT22;30214;52.246;14.408;2023-04-24T01:47:39;9.80;99.90
44509;DHT22;30214;52.246;14.408;2023-04-24T01:50:07;9.80;99.90
44509;DHT22;30214;52.246;14.408;2023-04-24T01:52:35;9.90;99.90
44509;DHT22;30214;52.246;14.408;2023-04-24T01:55:03;9.90;99.90
44509;DHT22;30214;52.246;14.408;2023-04-24T01:57:32;9.80;99.90
44509;DHT22;30214;52.246;14.408;2023-04-24T02:00:00;9.80;99.90
44509;DHT22;30214;52.246;14.408;2023-04-24T02:02:39;9.80;99.90
44509;DHT22;30214;52.246;14.408;2023-04-24T02:05:07;9.80;99.90
44509;DHT22;30214;52.246;14.408;2023-04-24T02:07:38;9.90;99.90
44509;DHT22;30214;52.246;14.408;2023-04-24T02:10:06;9.80;99.90
44509;DHT22;30214;52.246;14.408;2023-04-24T02:12:35;9.70;99.90
44509;DHT22;30214;52.246;14.408;2023-04-24T02:15:02;9.50;99.90
44509;DHT22;30214;52.246;14.408;2023-04-24T02:17:30;9.40;99.90
44509;DHT22;30214;52.246;14.408;2023-04-24T02:19:57;9.40;99.90
44509;DHT22;30214;52.246;14.408;2023-04-24T02:22:25;9.40;99.90
44509;DHT22;30214;52.246;14.408;2023-04-24T02:24:52;9.40;99.90
44509;DHT22;30214;52.246;14.408;2023-04-24T02:27:19;9.30;99.90
44509;DHT22;30214;52.246;14.408;2023-04-24T02:29:47;9.20;99.90
44509;DHT22;30214;52.246;14.408;2023-04-24T02:32:14;9.20;99.90
44509;DHT22;30214;52.246;14.408;2023-04-24T02:34:42;9.20;99.90
44509;DHT22;30214;52.246;14.408;2023-04-24T02:37:11;9.20;99.90
44509;DHT22;30214;52.246;14.408;2023-04-24T02:39:38;9.10;99.90
44509;DHT22;30214;52.246;14.408;2023-04-24T02:42:05;9.10;99.90
44509;DHT22;30214;52.246;14.408;2023-04-24T02:44:34;9.10;99.90
44509;DHT22;30214;52.246;14.408;2023-04-24T02:47:03;9.10;99.90
44509;DHT22;30214;52.246;14.408;2023-04-24T02:49:30;9.00;99.90
44509;DHT22;30214;52.246;14.408;2023-04-24T02:51:58;9.00;99.90
44509;DHT22;30214;52.246;14.408;2023-04-24T02:54:25;9.00;99.90
44509;DHT22;30214;52.246;14.408;2023-04-24T02:56:52;9.00;99.90
44509;DHT22;30214;52.246;14.408;2023-04-24T02:59:19;8.90;99.90
44509;DHT22;30214;52.246;14.408;2023-04-24T03:01:46;8.90;99.90
44509;DHT22;30214;52.246;14.408;2023-04-24T03:04:14;8.90;99.90
44509;DHT22;30214;52.246;14.408;2023-04-24T03:06:42;8.90;99.90
44509;DHT22;30214;52.246;14.408;2023-04-24T03:09:09;9.00;99.90
44509;DHT22;30214;52.246;14.408;2023-04-24T03:11:36;8.90;99.90
44509;DHT22;30214;52.246;14.408;2023-04-24T03:14:03;9.00;99.90
44509;DHT22;30214;52.246;14.408;2023-04-24T03:16:30;9.10;99.90
44509;DHT22;30214;52.246;14.408;2023-04-24T03:18:58;9.00;99.90
44509;DHT22;30214;52.246;14.408;2023-04-24T03:21:30;9.00;99.90
44509;DHT22;30214;52.246;14.408;2023-04-24T03:23:58;9.10;99.90
44509;DHT22;30214;52.246;14.408;2023-04-24T03:26:25;9.00;99.90
44509;DHT22;30214;52.246;14.408;2023-04-24T03:29:04;9.00;99.90
44509;DHT22;30214;52.246;14.408;2023-04-24T03:31:33;9.10;99.90
44509;DHT22;30214;52.246;14.408;2023-04-24T03:34:00;9.10;99.90
44509;DHT22;30214;52.246;14.408;2023-04-24T03:36:29;9.10;99.90
44509;DHT22;30214;52.246;14.408;2023-04-24T03:38:57;9.00;99.90
44509;DHT22;30214;52.246;14.408;2023-04-24T03:41:28;8.90;99.90
44509;DHT22;30214;52.246;14.408;2023-04-24T03:44:10;8.90;99.90
44509;DHT22;30214;52.246;14.408;2023-04-24T03:46:37;8.90;99.90
44509;DHT22;30214;52.246;14.408;2023-04-24T03:49:04;8.90;99.90
44509;DHT22;30214;52.246;14.408;2023-04-24T03:51:36;8.80;99.90
44509;DHT22;30214;52.246;14.408;2023-04-24T03:54:12;8.90;99.90
44509;DHT22;30214;52.246;14.408;2023-04-24T03:56:40;8.90;99.90
44509;DHT22;30214;52.246;14.408;2023-04-24T03:59:07;8.90;99.90
44509;DHT22;30214;52.246;14.408;2023-04-24T04:01:35;8.90;99.90
44509;DHT22;30214;52.246;14.408;2023-04-24T04:04:15;8.90;99.90
44509;DHT22;30214;52.246;14.408;2023-04-24T04:06:45;9.00;99.90
44509;DHT22;30214;52.246;14.408;2023-04-24T04:09:13;9.00;99.90
44509;DHT22;30214;52.246;14.408;2023-04-24T04:11:40;9.10;99.90
44509;DHT22;30214;52.246;14.408;2023-04-24T04:14:07;9.20;99.90
44509;DHT22;30214;52.246;14.408;2023-04-24T04:16:38;9.20;99.90
44509;DHT22;30214;52.246;14.408;2023-04-24T04:19:06;9.40;99.90
44509;DHT22;30214;52.246;14.408;2023-04-24T04:21:34;9.40;99.90
44509;DHT22;30214;52.246;14.408;2023-04-24T04:24:20;9.50;99.90
44509;DHT22;30214;52.246;14.408;2023-04-24T04:26:48;9.50;99.90
44509;DHT22;30214;52.246;14.408;2023-04-24T04:29:27;9.60;99.90
44509;DHT22;30214;52.246;14.408;2023-04-24T04:31:55;9.80;99.90
44509;DHT22;30214;52.246;14.408;2023-04-24T04:34:22;9.90;99.90
44509;DHT22;30214;52.246;14.408;2023-04-24T04:36:50;9.90;99.90
44509;DHT22;30214;52.246;14.408;2023-04-24T04:39:33;10.00;99.90
44509;DHT22;30214;52.246;14.408;2023-04-24T04:42:03;10.10;99.90
44509;DHT22;30214;52.246;14.408;2023-04-24T04:44:38;10.20;99.90
44509;DHT22;30214;52.246;14.408;2023-04-24T04:47:08;10.20;99.90
44509;DHT22;30214;52.246;14.408;2023-04-24T04:49:37;10.60;99.90
44509;DHT22;30214;52.246;14.408;2023-04-24T04:52:09;11.30;99.90
44509;DHT22;30214;52.246;14.408;2023-04-24T04:54:38;11.30;99.90
44509;DHT22;30214;52.246;14.408;2023-04-24T04:57:06;11.30;99.90
44509;DHT22;30214;52.246;14.408;2023-04-24T04:59:35;11.40;99.90
44509;DHT22;30214;52.246;14.408;2023-04-24T05:02:07;11.50;99.90
44509;DHT22;30214;52.246;14.408;2023-04-24T05:04:36;11.60;99.90
44509;DHT22;30214;52.246;14.408;2023-04-24T05:07:04;11.60;99.90
44509;DHT22;30214;52.246;14.408;2023-04-24T05:09:33;11.50;99.90
44509;DHT22;30214;52.246;14.408;2023-04-24T05:12:05;11.50;99.90
44509;DHT22;30214;52.246;14.408;2023-04-24T05:14:37;11.40;99.90
44509;DHT22;30214;52.246;14.408;2023-04-24T05:17:05;11.40;99.90
44509;DHT22;30214;52.246;14.408;2023-04-24T05:19:32;11.40;99.90
44509;DHT22;30214;52.246;14.408;2023-04-24T05:22:01;11.40;99.90
44509;DHT22;30214;52.246;14.408;2023-04-24T05:24:33;11.50;99.90
44509;DHT22;30214;52.246;14.408;2023-04-24T05:27:11;11.60;99.90
44509;DHT22;30214;52.246;14.408;2023-04-24T05:29:40;11.70;99.90
44509;DHT22;30214;52.246;14.408;2023-04-24T05:32:08;11.80;99.90
44509;DHT22;30214;52.246;14.408;2023-04-24T05:34:35;11.90;99.90
44509;DHT22;30214;52.246;14.408;2023-04-24T05:37:03;11.90;99.90
44509;DHT22;30214;52.246;14.408;2023-04-24T05:39:33;12.00;99.90
44509;DHT22;30214;52.246;14.408;2023-04-24T05:42:01;12.00;99.90
44509;DHT22;30214;52.246;14.408;2023-04-24T05:44:31;12.10;99.90
44509;DHT22;30214;52.246;14.408;2023-04-24T05:47:00;12.20;99.90
44509;DHT22;30214;52.246;14.408;2023-04-24T05:49:33;12.30;99.90
44509;DHT22;30214;52.246;14.408;2023-04-24T05:52:10;12.30;99.90
44509;DHT22;30214;52.246;14.408;2023-04-24T05:54:42;12.40;99.90
44509;DHT22;30214;52.246;14.408;2023-04-24T05:57:13;12.30;99.90
44509;DHT22;30214;52.246;14.408;2023-04-24T05:59:56;12.40;99.90
44509;DHT22;30214;52.246;14.408;2023-04-24T06:02:28;12.50;99.90
44509;DHT22;30214;52.246;14.408;2023-04-24T06:05:01;12.60;99.90
44509;DHT22;30214;52.246;14.408;2023-04-24T06:07:38;12.60;99.90
44509;DHT22;30214;52.246;14.408;2023-04-24T06:10:09;12.70;99.90
44509;DHT22;30214;52.246;14.408;2023-04-24T06:12:43;12.80;99.90
44509;DHT22;30214;52.246;14.408;2023-04-24T06:15:19;12.80;99.90
44509;DHT22;30214;52.246;14.408;2023-04-24T06:17:55;12.90;99.90
44509;DHT22;30214;52.246;14.408;2023-04-24T06:20:36;13.00;99.90
44509;DHT22;30214;52.246;14.408;2023-04-24T06:23:05;13.10;99.90
44509;DHT22;30214;52.246;14.408;2023-04-24T06:25:36;13.20;99.90
44509;DHT22;30214;52.246;14.408;2023-04-24T06:28:06;13.40;99.90
44509;DHT22;30214;52.246;14.408;2023-04-24T06:30:38;13.50;99.90
44509;DHT22;30214;52.246;14.408;2023-04-24T06:33:09;13.60;99.90
44509;DHT22;30214;52.246;14.408;2023-04-24T06:35:39;13.60;99.90
44509;DHT22;30214;52.246;14.408;2023-04-24T06:38:08;13.60;99.90
44509;DHT22;30214;52.246;14.408;2023-04-24T06:40:39;13.70;99.90
44509;DHT22;30214;52.246;14.408;2023-04-24T06:43:10;13.80;99.90
44509;DHT22;30214;52.246;14.408;2023-04-24T06:45:40;13.80;99.90
44509;DHT22;30214;52.246;14.408;2023-04-24T06:48:13;13.70;99.90
44509;DHT22;30214;52.246;14.408;2023-04-24T06:50:41;13.60;99.90
44509;DHT22;30214;52.246;14.408;2023-04-24T06:53:15;13.60;99.90
44509;DHT22;30214;52.246;14.408;2023-04-24T06:55:46;13.60;99.90
44509;DHT22;30214;52.246;14.408;2023-04-24T06:58:16;13.70;99.90
44509;DHT22;30214;52.246;14.408;2023-04-24T07:00:49;13.70;99.90
44509;DHT22;30214;52.246;14.408;2023-04-24T07:03:17;13.80;99.90
44509;DHT22;30214;52.246;14.408;2023-04-24T07:05:46;14.20;99.90
44509;DHT22;30214;52.246;14.408;2023-04-24T07:08:17;14.50;99.90
44509;DHT22;30214;52.246;14.408;2023-04-24T07:10:50;14.70;99.90
44509;DHT22;30214;52.246;14.408;2023-04-24T07:13:18;14.90;99.90
44509;DHT22;30214;52.246;14.408;2023-04-24T07:15:49;15.20;99.90
44509;DHT22;30214;52.246;14.408;2023-04-24T07:18:20;15.20;99.90
44509;DHT22;30214;52.246;14.408;2023-04-24T07:20:52;15.10;99.90
44509;DHT22;30214;52.246;14.408;2023-04-24T07:23:21;15.10;99.90
44509;DHT22;30214;52.246;14.408;2023-04-24T07:25:50;15.10;99.90
44509;DHT22;30214;52.246;14.408;2023-04-24T07:28:21;15.30;99.90
44509;DHT22;30214;52.246;14.408;2023-04-24T07:30:55;15.40;99.90
44509;DHT22;30214;52.246;14.408;2023-04-24T07:33:28;15.50;99.90
44509;DHT22;30214;52.246;14.408;2023-04-24T07:35:57;15.60;99.90
44509;DHT22;30214;52.246;14.408;2023-04-24T07:38:28;15.70;99.90
44509;DHT22;30214;52.246;14.408;2023-04-24T07:40:57;15.90;99.90
44509;DHT22;30214;52.246;14.408;2023-04-24T07:43:27;16.30;99.90
44509;DHT22;30214;52.246;14.408;2023-04-24T07:45:57;16.70;99.90
44509;DHT22;30214;52.246;14.408;2023-04-24T07:48:27;17.00;99.90
44509;DHT22;30214;52.246;14.408;2023-04-24T07:50:59;17.30;99.90
44509;DHT22;30214;52.246;14.408;2023-04-24T07:53:29;17.30;99.90
44509;DHT22;30214;52.246;14.408;2023-04-24T07:56:04;17.20;99.90
44509;DHT22;30214;52.246;14.408;2023-04-24T07:58:37;17.10;99.90
44509;DHT22;30214;52.246;14.408;2023-04-24T08:01:14;16.90;99.90
44509;DHT22;30214;52.246;14.408;2023-04-24T08:03:45;16.70;99.90
44509;DHT22;30214;52.246;14.408;2023-04-24T08:06:25;16.80;99.90
44509;DHT22;30214;52.246;14.408;2023-04-24T08:08:56;16.80;99.90
44509;DHT22;30214;52.246;14.408;2023-04-24T08:11:27;16.70;99.90
44509;DHT22;30214;52.246;14.408;2023-04-24T08:13:57;16.60;99.90
44509;DHT22;30214;52.246;14.408;2023-04-24T08:16:30;16.70;99.90
44509;DHT22;30214;52.246;14.408;2023-04-24T08:19:04;16.70;99.90
44509;DHT22;30214;52.246;14.408;2023-04-24T08:21:34;16.70;99.90
44509;DHT22;30214;52.246;14.408;2023-04-24T08:24:06;16.70;99.90
44509;DHT22;30214;52.246;14.408;2023-04-24T08:26:38;16.80;99.90
44509;DHT22;30214;52.246;14.408;2023-04-24T08:29:07;17.00;99.90
44509;DHT22;30214;52.246;14.408;2023-04-24T08:31:40;17.10;99.90
44509;DHT22;30214;52.246;14.408;2023-04-24T08:34:11;17.20;99.90
44509;DHT22;30214;52.246;14.408;2023-04-24T08:36:45;17.40;99.90
44509;DHT22;30214;52.246;14.408;2023-04-24T08:39:14;17.60;99.90
44509;DHT22;30214;52.246;14.408;2023-04-24T08:41:44;17.80;99.60
44509;DHT22;30214;52.246;14.408;2023-04-24T08:44:13;17.50;99.30
44509;DHT22;30214;52.246;14.408;2023-04-24T08:46:48;17.20;99.70
44509;DHT22;30214;52.246;14.408;2023-04-24T08:49:19;17.00;99.90
44509;DHT22;30214;52.246;14.408;2023-04-24T08:51:49;17.00;99.90
44509;DHT22;30214;52.246;14.408;2023-04-24T08:54:23;17.00;99.90
44509;DHT22;30214;52.246;14.408;2023-04-24T08:56:57;17.30;99.90
44509;DHT22;30214;52.246;14.408;2023-04-24T08:59:30;17.60;99.00
44509;DHT22;30214;52.246;14.408;2023-04-24T09:02:03;17.60;98.80
44509;DHT22;30214;52.246;14.408;2023-04-24T09:04:34;17.40;98.60
44509;DHT22;30214;52.246;14.408;2023-04-24T09:07:03;17.30;99.10
44509;DHT22;30214;52.246;14.408;2023-04-24T09:09:41;17.20;99.40
44509;DHT22;30214;52.246;14.408;2023-04-24T09:12:09;17.20;99.90
44509;DHT22;30214;52.246;14.408;2023-04-24T09:14:40;17.40;99.60
44509;DHT22;30214;52.246;14.408;2023-04-24T09:17:14;17.60;99.20
44509;DHT22;30214;52.246;14.408;2023-04-24T09:19:41;17.80;99.00
44509;DHT22;30214;52.246;14.408;2023-04-24T09:22:16;18.00;99.90
44509;DHT22;30214;52.246;14.408;2023-04-24T09:24:48;18.10;96.60
44509;DHT22;30214;52.246;14.408;2023-04-24T09:27:31;18.10;97.80
44509;DHT22;30214;52.246;14.408;2023-04-24T09:30:01;18.20;97.50
44509;DHT22;30214;52.246;14.408;2023-04-24T09:32:38;18.50;97.70
44509;DHT22;30214;52.246;14.408;2023-04-24T09:35:09;18.80;97.50
44509;DHT22;30214;52.246;14.408;2023-04-24T09:37:45;18.70;96.50
44509;DHT22;30214;52.246;14.408;2023-04-24T09:40:16;18.70;96.40
44509;DHT22;30214;52.246;14.408;2023-04-24T09:42:56;18.60;94.30
44509;DHT22;30214;52.246;14.408;2023-04-24T09:45:36;18.60;94.90
44509;DHT22;30214;52.246;14.408;2023-04-24T09:48:10;18.80;96.40
44509;DHT22;30214;52.246;14.408;2023-04-24T09:50:39;18.90;94.90
44509;DHT22;30214;52.246;14.408;2023-04-24T09:53:14;18.70;94.40
44509;DHT22;30214;52.246;14.408;2023-04-24T09:55:45;18.40;93.50
44509;DHT22;30214;52.246;14.408;2023-04-24T09:58:28;18.40;93.60
44509;DHT22;30214;52.246;14.408;2023-04-24T10:01:00;18.40;94.20
44509;DHT22;30214;52.246;14.408;2023-04-24T10:03:42;18.40;94.60
44509;DHT22;30214;52.246;14.408;2023-04-24T10:06:13;18.50;93.30
44509;DHT22;30214;52.246;14.408;2023-04-24T10:08:44;18.40;93.50
44509;DHT22;30214;52.246;14.408;2023-04-24T10:11:17;18.00;93.80
44509;DHT22;30214;52.246;14.408;2023-04-24T10:13:48;17.80;95.30
44509;DHT22;30214;52.246;14.408;2023-04-24T10:16:16;17.40;96.50
44509;DHT22;30214;52.246;14.408;2023-04-24T10:18:54;17.10;98.50
44509;DHT22;30214;52.246;14.408;2023-04-24T10:21:26;17.00;98.10
44509;DHT22;30214;52.246;14.408;2023-04-24T10:23:59;17.10;98.60
44509;DHT22;30214;52.246;14.408;2023-04-24T10:26:35;17.10;99.80
44509;DHT22;30214;52.246;14.408;2023-04-24T10:29:16;17.20;98.60
44509;DHT22;30214;52.246;14.408;2023-04-24T10:31:48;17.30;98.80
44509;DHT22;30214;52.246;14.408;2023-04-24T10:34:20;17.50;98.50
44509;DHT22;30214;52.246;14.408;2023-04-24T10:36:52;17.60;97.60
44509;DHT22;30214;52.246;14.408;2023-04-24T10:39:21;17.60;97.30
44509;DHT22;30214;52.246;14.408;2023-04-24T10:41:57;17.60;97.80
44509;DHT22;30214;52.246;14.408;2023-04-24T10:44:37;17.60;96.90
44509;DHT22;30214;52.246;14.408;2023-04-24T10:47:05;17.50;97.10
44509;DHT22;30214;52.246;14.408;2023-04-24T10:49:38;17.50;96.80
44509;DHT22;30214;52.246;14.408;2023-04-24T10:52:09;17.40;97.70
44509;DHT22;30214;52.246;14.408;2023-04-24T10:54:45;17.30;98.60
44509;DHT22;30214;52.246;14.408;2023-04-24T10:57:29;17.20;99.50
44509;DHT22;30214;52.246;14.408;2023-04-24T11:00:19;17.00;99.10
44509;DHT22;30214;52.246;14.408;2023-04-24T11:02:53;17.10;98.90
44509;DHT22;30214;52.246;14.408;2023-04-24T11:05:58;17.10;98.60
44509;DHT22;30214;52.246;14.408;2023-04-24T11:08:37;17.20;99.60
44509;DHT22;30214;52.246;14.408;2023-04-24T11:11:10;17.30;98.80
44509;DHT22;30214;52.246;14.408;2023-04-24T11:14:14;17.40;99.00
44509;DHT22;30214;52.246;14.408;2023-04-24T11:16:46;17.50;98.70
44509;DHT22;30214;52.246;14.408;2023-04-24T11:19:23;17.70;99.10
44509;DHT22;30214;52.246;14.408;2023-04-24T11:21:59;18.10;97.50
44509;DHT22;30214;52.246;14.408;2023-04-24T11:24:31;18.20;98.00
44509;DHT22;30214;52.246;14.408;2023-04-24T11:27:12;18.20;97.50
44509;DHT22;30214;52.246;14.408;2023-04-24T11:29:48;18.10;98.30
44509;DHT22;30214;52.246;14.408;2023-04-24T11:32:25;18.10;99.50
44509;DHT22;30214;52.246;14.408;2023-04-24T11:34:58;18.00;97.80
44509;DHT22;30214;52.246;14.408;2023-04-24T11:40:22;17.90;98.70
44509;DHT22;30214;52.246;14.408;2023-04-24T11:42:55;18.10;98.30
44509;DHT22;30214;52.246;14.408;2023-04-24T11:45:28;18.30;97.20
44509;DHT22;30214;52.246;14.408;2023-04-24T11:47:58;18.40;98.00
44509;DHT22;30214;52.246;14.408;2023-04-24T11:50:36;18.40;96.90
44509;DHT22;30214;52.246;14.408;2023-04-24T11:53:04;18.20;97.60
44509;DHT22;30214;52.246;14.408;2023-04-24T11:55:39;18.10;97.60
44509;DHT22;30214;52.246;14.408;2023-04-24T11:58:07;18.10;97.20
44509;DHT22;30214;52.246;14.408;2023-04-24T12:00:38;18.20;97.60
44509;DHT22;30214;52.246;14.408;2023-04-24T12:03:07;18.10;97.40
44509;DHT22;30214;52.246;14.408;2023-04-24T12:05:37;18.00;96.90
44509;DHT22;30214;52.246;14.408;2023-04-24T12:08:08;18.00;97.40
44509;DHT22;30214;52.246;14.408;2023-04-24T12:10:43;18.10;95.80
44509;DHT22;30214;52.246;14.408;2023-04-24T12:13:15;18.20;94.70
44509;DHT22;30214;52.246;14.408;2023-04-24T12:15:46;18.10;93.70
44509;DHT22;30214;52.246;14.408;2023-04-24T12:18:14;18.00;95.40
44509;DHT22;30214;52.246;14.408;2023-04-24T12:20:45;18.00;95.80
44509;DHT22;30214;52.246;14.408;2023-04-24T12:23:33;18.10;95.60
44509;DHT22;30214;52.246;14.408;2023-04-24T12:26:07;18.10;94.20
44509;DHT22;30214;52.246;14.408;2023-04-24T12:28:37;18.10;95.30
44509;DHT22;30214;52.246;14.408;2023-04-24T12:31:09;18.20;94.50
44509;DHT22;30214;52.246;14.408;2023-04-24T12:33:45;18.30;94.70
44509;DHT22;30214;52.246;14.408;2023-04-24T12:36:13;18.40;93.80
44509;DHT22;30214;52.246;14.408;2023-04-24T12:38:43;18.50;93.80
44509;DHT22;30214;52.246;14.408;2023-04-24T12:41:18;18.40;94.30
44509;DHT22;30214;52.246;14.408;2023-04-24T12:43:55;18.30;94.30
44509;DHT22;30214;52.246;14.408;2023-04-24T12:46:28;18.30;95.20
44509;DHT22;30214;52.246;14.408;2023-04-24T12:48:59;18.40;95.60
44509;DHT22;30214;52.246;14.408;2023-04-24T12:51:29;18.40;93.80
44509;DHT22;30214;52.246;14.408;2023-04-24T12:54:02;18.50;92.80
44509;DHT22;30214;52.246;14.408;2023-04-24T12:56:39;18.50;93.80
44509;DHT22;30214;52.246;14.408;2023-04-24T12:59:14;18.60;93.00
44509;DHT22;30214;52.246;14.408;2023-04-24T13:01:42;18.70;93.80
44509;DHT22;30214;52.246;14.408;2023-04-24T13:04:16;18.90;92.70
44509;DHT22;30214;52.246;14.408;2023-04-24T13:06:52;18.90;94.10
44509;DHT22;30214;52.246;14.408;2023-04-24T13:09:23;18.70;92.30
44509;DHT22;30214;52.246;14.408;2023-04-24T13:11:55;18.70;93.40
44509;DHT22;30214;52.246;14.408;2023-04-24T13:14:25;18.60;93.40
44509;DHT22;30214;52.246;14.408;2023-04-24T13:16:57;18.80;92.10
44509;DHT22;30214;52.246;14.408;2023-04-24T13:19:27;18.60;91.50
44509;DHT22;30214;52.246;14.408;2023-04-24T13:21:58;18.30;92.50
44509;DHT22;30214;52.246;14.408;2023-04-24T13:24:28;18.00;93.30
44509;DHT22;30214;52.246;14.408;2023-04-24T13:27:04;17.90;95.30
44509;DHT22;30214;52.246;14.408;2023-04-24T13:29:32;17.80;96.00
44509;DHT22;30214;52.246;14.408;2023-04-24T13:32:00;17.90;94.30
44509;DHT22;30214;52.246;14.408;2023-04-24T13:34:31;17.90;93.70
44509;DHT22;30214;52.246;14.408;2023-04-24T13:37:04;17.90;93.40
44509;DHT22;30214;52.246;14.408;2023-04-24T13:39:43;17.80;94.80
44509;DHT22;30214;52.246;14.408;2023-04-24T13:42:14;17.80;95.50
44509;DHT22;30214;52.246;14.408;2023-04-24T13:44:43;17.80;95.40
44509;DHT22;30214;52.246;14.408;2023-04-24T13:47:12;17.80;94.50
44509;DHT22;30214;52.246;14.408;2023-04-24T13:49:45;18.10;94.70
44509;DHT22;30214;52.246;14.408;2023-04-24T13:52:16;18.20;86.40
44509;DHT22;30214;52.246;14.408;2023-04-24T13:54:48;18.10;85.10
44509;DHT22;30214;52.246;14.408;2023-04-24T13:57:17;17.70;88.80
44509;DHT22;30214;52.246;14.408;2023-04-24T13:59:48;17.50;86.00
44509;DHT22;30214;52.246;14.408;2023-04-24T14:02:18;17.50;89.20
44509;DHT22;30214;52.246;14.408;2023-04-24T14:04:57;17.30;91.80
44509;DHT22;30214;52.246;14.408;2023-04-24T14:07:27;17.30;91.60
44509;DHT22;30214;52.246;14.408;2023-04-24T14:09:58;17.20;92.80
44509;DHT22;30214;52.246;14.408;2023-04-24T14:12:31;17.10;92.90
44509;DHT22;30214;52.246;14.408;2023-04-24T14:15:10;17.00;94.40
44509;DHT22;30214;52.246;14.408;2023-04-24T14:17:51;17.10;94.00
44509;DHT22;30214;52.246;14.408;2023-04-24T14:20:19;17.10;93.30
44509;DHT22;30214;52.246;14.408;2023-04-24T14:22:52;17.00;92.10
44509;DHT22;30214;52.246;14.408;2023-04-24T14:25:24;17.10;91.90
44509;DHT22;30214;52.246;14.408;2023-04-24T14:27:59;17.10;92.10
44509;DHT22;30214;52.246;14.408;2023-04-24T14:30:30;17.20;92.70
44509;DHT22;30214;52.246;14.408;2023-04-24T14:32:59;17.20;92.60
44509;DHT22;30214;52.246;14.408;2023-04-24T14:35:31;17.30;93.30
44509;DHT22;30214;52.246;14.408;2023-04-24T14:38:01;17.30;92.00
44509;DHT22;30214;52.246;14.408;2023-04-24T14:40:45;17.40;90.90
44509;DHT22;30214;52.246;14.408;2023-04-24T14:43:16;17.30;92.00
44509;DHT22;30214;52.246;14.408;2023-04-24T14:45:46;17.30;91.30
44509;DHT22;30214;52.246;14.408;2023-04-24T14:48:17;17.30;92.20
44509;DHT22;30214;52.246;14.408;2023-04-24T14:50:48;17.20;90.30
44509;DHT22;30214;52.246;14.408;2023-04-24T14:53:19;17.20;91.40
44509;DHT22;30214;52.246;14.408;2023-04-24T14:55:50;17.30;90.70
44509;DHT22;30214;52.246;14.408;2023-04-24T14:58:23;17.20;91.10
44509;DHT22;30214;52.246;14.408;2023-04-24T15:00:53;17.10;90.60
44509;DHT22;30214;52.246;14.408;2023-04-24T15:03:22;17.10;89.20
44509;DHT22;30214;52.246;14.408;2023-04-24T15:05:51;17.20;90.40
44509;DHT22;30214;52.246;14.408;2023-04-24T15:08:23;17.20;88.20
44509;DHT22;30214;52.246;14.408;2023-04-24T15:10:53;17.30;90.90
44509;DHT22;30214;52.246;14.408;2023-04-24T15:13:29;17.40;88.80
44509;DHT22;30214;52.246;14.408;2023-04-24T15:15:59;17.50;90.10
44509;DHT22;30214;52.246;14.408;2023-04-24T15:18:32;17.50;83.90
44509;DHT22;30214;52.246;14.408;2023-04-24T15:21:03;17.50;84.50
44509;DHT22;30214;52.246;14.408;2023-04-24T15:23:36;17.50;82.50
44509;DHT22;30214;52.246;14.408;2023-04-24T15:26:05;17.40;78.30
44509;DHT22;30214;52.246;14.408;2023-04-24T15:28:34;17.30;75.20
44509;DHT22;30214;52.246;14.408;2023-04-24T15:31:01;17.30;74.70
44509;DHT22;30214;52.246;14.408;2023-04-24T15:33:28;17.50;75.80
44509;DHT22;30214;52.246;14.408;2023-04-24T15:35:55;17.50;66.40
44509;DHT22;30214;52.246;14.408;2023-04-24T15:38:22;17.50;64.00
44509;DHT22;30214;52.246;14.408;2023-04-24T15:40:50;17.40;60.20
44509;DHT22;30214;52.246;14.408;2023-04-24T15:43:17;17.30;60.20
44509;DHT22;30214;52.246;14.408;2023-04-24T15:45:46;17.30;58.70
44509;DHT22;30214;52.246;14.408;2023-04-24T15:48:13;17.30;58.60